Time;durP1;ratioP1;P1;durP2;ratioP2;P2;SDS_P1;SDS_P2;PMS_P1;PMS_P2;Temp;Humidity;BMP_temperature;BMP_pressure;BME280_temperature;BME280_humidity;BME280_pressure;Samples;Min_cycle;Max_cycle;Signal;HPM_P1;HPM_P2
2023/05/23 00:00:59;;;;;;;;;;;;;;;19.63;63.70;100137.62;5366157;32;35344;-69
2023/05/23 00:04:01;;;;;;;;;;;;;;;19.42;64.33;100127.69;5375366;32;34739;-71
2023/05/23 00:07:03;;;;;;;;;;;;;;;19.58;63.77;100130.03;5371184;32;35945;-69
2023/05/23 00:10:05;;;;;;;;;;;;;;;19.23;64.67;100132.78;5374217;32;35039;-71
2023/05/23 00:13:08;;;;;;;;;;;;;;;19.00;66.30;100125.75;5367335;32;34815;-72
2023/05/23 00:16:10;;;;;;;;;;;;;;;19.23;65.04;100124.81;5373208;32;34968;-71
2023/05/23 00:19:13;;;;;;;;;;;;;;;19.69;62.98;100127.31;5368608;32;34774;-69
2023/05/23 00:22:16;;;;;;;;;;;;;;;19.49;64.13;100123.56;5370479;32;44811;-71
2023/05/23 00:25:20;;;;;;;;;;;;;;;19.16;65.27;100119.13;5373192;32;34451;-69
2023/05/23 00:28:22;;;;;;;;;;;;;;;19.32;64.55;100109.91;5365510;32;34746;-71
2023/05/23 00:31:24;;;;;;;;;;;;;;;18.91;65.67;100122.00;5358727;32;35662;-71
2023/05/23 00:34:39;;;;;;;;;;;;;;;19.17;64.80;100120.81;5391764;27;35067;-90
2023/05/23 00:38:58;;;;;;;;;;;;;;;19.16;65.48;100120.94;5369211;32;35576;-90
2023/05/23 00:46:22;;;;;;;;;;;;;;;19.02;64.74;100115.84;5292724;32;35680;-91
2023/05/23 00:49:57;;;;;;;;;;;;;;;19.32;63.85;100117.88;5276168;32;35286;-91
2023/05/23 00:53:39;;;;;;;;;;;;;;;18.94;66.48;100133.28;5300760;32;34080;-91
2023/05/23 00:57:07;;;;;;;;;;;;;;;20.18;61.46;100112.63;5422773;32;907826;-71
2023/05/23 01:00:13;;;;;;;;;;;;;;;20.18;61.46;100112.63;5427834;32;34059;-71
2023/05/23 01:03:16;;;;;;;;;;;;;;;19.96;61.10;100121.53;5428379;32;34744;-66
2023/05/23 01:06:19;;;;;;;;;;;;;;;19.96;61.38;100118.03;5426079;32;44647;-66
2023/05/23 01:09:22;;;;;;;;;;;;;;;18.97;64.56;100118.03;5441381;32;34417;-69
2023/05/23 01:12:26;;;;;;;;;;;;;;;18.96;65.78;100119.84;5413808;32;34643;-70
2023/05/23 01:15:39;;;;;;;;;;;;;;;19.31;64.74;100117.03;5428809;32;34775;-67
2023/05/23 01:18:47;;;;;;;;;;;;;;;19.43;62.85;100115.22;5436761;32;35658;-70
2023/05/23 01:21:52;;;;;;;;;;;;;;;18.61;66.43;100110.09;5404374;32;44589;-72
2023/05/23 01:24:54;;;;;;;;;;;;;;;19.07;65.13;100108.34;5423584;32;35295;-69
2023/05/23 01:27:57;;;;;;;;;;;;;;;18.84;66.46;100110.16;5403534;32;35431;-70
2023/05/23 01:30:59;;;;;;;;;;;;;;;19.17;64.97;100110.16;5415611;32;34260;-66
2023/05/23 01:34:02;;;;;;;;;;;;;;;18.97;64.89;100110.03;5405924;32;35201;-70
2023/05/23 01:37:09;;;;;;;;;;;;;;;18.81;65.92;100113.91;5367980;32;34602;-70
2023/05/23 01:40:11;;;;;;;;;;;;;;;19.18;65.29;100111.00;5421478;32;34351;-72
2023/05/23 01:43:13;;;;;;;;;;;;;;;19.12;65.21;100108.81;5403151;32;35291;-66
2023/05/23 01:46:15;;;;;;;;;;;;;;;19.26;64.35;100100.59;5420148;32;35497;-67
2023/05/23 01:49:17;;;;;;;;;;;;;;;18.55;67.62;100107.06;5396505;32;45767;-66
2023/05/23 01:52:18;;;;;;;;;;;;;;;18.33;68.51;100107.81;5431440;32;34906;-70
2023/05/23 01:55:21;;;;;;;;;;;;;;;18.56;67.02;100101.59;5417442;32;34563;-67
2023/05/23 01:58:23;;;;;;;;;;;;;;;18.27;66.42;100106.47;5429544;32;34378;-68
2023/05/23 02:01:25;;;;;;;;;;;;;;;18.36;66.22;100102.28;5422889;32;34556;-70
2023/05/23 02:04:27;;;;;;;;;;;;;;;18.52;65.61;100105.44;5413141;32;34180;-66
2023/05/23 02:07:29;;;;;;;;;;;;;;;18.48;66.15;100111.13;5427496;32;34274;-66
2023/05/23 02:10:31;;;;;;;;;;;;;;;18.59;65.29;100095.19;5417451;32;35643;-68
2023/05/23 02:13:33;;;;;;;;;;;;;;;18.43;65.71;100092.03;5417880;32;37002;-66
2023/05/23 02:16:35;;;;;;;;;;;;;;;18.57;65.61;100100.63;5422967;32;35205;-71
2023/05/23 02:19:37;;;;;;;;;;;;;;;19.69;61.18;100089.16;5406299;32;34209;-68
2023/05/23 02:22:39;;;;;;;;;;;;;;;19.83;60.18;100091.53;5423435;32;35803;-72
2023/05/23 02:25:41;;;;;;;;;;;;;;;19.63;60.13;100090.50;5410462;32;34898;-67
2023/05/23 02:28:43;;;;;;;;;;;;;;;18.98;62.30;100095.75;5411414;32;34107;-69
2023/05/23 02:31:45;;;;;;;;;;;;;;;18.63;64.42;100096.66;5410313;32;44921;-72
2023/05/23 02:34:49;;;;;;;;;;;;;;;18.53;65.40;100087.66;5393421;32;34418;-66
2023/05/23 02:37:51;;;;;;;;;;;;;;;19.31;62.32;100090.41;5388058;32;34965;-66
2023/05/23 02:40:52;;;;;;;;;;;;;;;18.77;64.33;100096.47;5400632;32;34789;-66
2023/05/23 02:43:55;;;;;;;;;;;;;;;18.25;66.74;100094.25;5408876;32;35169;-66
2023/05/23 02:46:56;;;;;;;;;;;;;;;18.90;64.51;100080.38;5393172;32;34280;-71
2023/05/23 02:49:58;;;;;;;;;;;;;;;17.88;68.71;100097.00;5385414;32;34661;-71
2023/05/23 02:53:00;;;;;;;;;;;;;;;18.26;67.70;100093.28;5403584;32;35133;-67
2023/05/23 02:56:02;;;;;;;;;;;;;;;18.73;65.56;100083.50;5411196;32;34210;-70
2023/05/23 02:59:04;;;;;;;;;;;;;;;19.24;63.44;100083.88;5410109;32;35448;-67
2023/05/23 03:02:06;;;;;;;;;;;;;;;19.48;61.97;100084.56;5405308;32;34897;-71
2023/05/23 03:05:08;;;;;;;;;;;;;;;19.67;61.27;100086.62;5411207;32;35204;-70
2023/05/23 03:08:10;;;;;;;;;;;;;;;18.98;63.74;100085.09;5413644;32;34694;-67
2023/05/23 03:11:12;;;;;;;;;;;;;;;18.27;66.77;100085.19;5420764;32;34791;-67
2023/05/23 03:14:15;;;;;;;;;;;;;;;18.44;67.34;100089.22;5402465;32;34378;-71
2023/05/23 03:17:16;;;;;;;;;;;;;;;18.88;65.68;100087.66;5412998;32;45182;-67
2023/05/23 03:20:19;;;;;;;;;;;;;;;18.32;67.75;100088.34;5417364;32;35927;-70
2023/05/23 03:23:20;;;;;;;;;;;;;;;18.99;64.83;100090.28;5418052;32;35264;-69
2023/05/23 03:26:22;;;;;;;;;;;;;;;17.96;68.96;100094.63;5410920;32;35631;-66
2023/05/23 03:29:24;;;;;;;;;;;;;;;17.84;69.38;100096.41;5411637;32;34480;-70
2023/05/23 03:32:26;;;;;;;;;;;;;;;17.90;69.03;100099.53;5417974;32;35245;-67
2023/05/23 03:35:28;;;;;;;;;;;;;;;17.72;69.68;100097.28;5382780;32;34873;-70
2023/05/23 03:38:30;;;;;;;;;;;;;;;18.09;68.60;100090.06;5398643;32;35032;-66
2023/05/23 03:41:32;;;;;;;;;;;;;;;18.37;67.38;100088.00;5415629;32;34697;-68
2023/05/23 03:44:34;;;;;;;;;;;;;;;18.31;65.81;100083.16;5412728;32;35295;-66
2023/05/23 03:47:36;;;;;;;;;;;;;;;18.69;64.08;100093.56;5401262;32;34643;-66
2023/05/23 03:50:38;;;;;;;;;;;;;;;19.23;62.58;100084.84;5391084;32;36177;-68
2023/05/23 03:53:40;;;;;;;;;;;;;;;18.40;64.98;100085.94;5417148;32;34379;-70
2023/05/23 03:56:42;;;;;;;;;;;;;;;18.76;63.58;100084.13;5390548;32;35013;-71
2023/05/23 03:59:44;;;;;;;;;;;;;;;18.03;66.10;100087.91;5398750;32;34659;-69
2023/05/23 04:02:46;;;;;;;;;;;;;;;17.98;66.80;100091.87;5413875;32;45472;-66
2023/05/23 04:05:48;;;;;;;;;;;;;;;18.26;65.56;100094.13;5400710;32;35164;-67
2023/05/23 04:08:50;;;;;;;;;;;;;;;18.52;64.17;100091.31;5412235;32;36586;-70
2023/05/23 04:11:52;;;;;;;;;;;;;;;18.32;64.78;100092.81;5412369;32;34178;-67
2023/05/23 04:14:54;;;;;;;;;;;;;;;19.15;62.99;100090.78;5398643;32;35147;-71
2023/05/23 04:17:56;;;;;;;;;;;;;;;18.79;62.88;100094.53;5411729;32;35782;-71
2023/05/23 04:20:59;;;;;;;;;;;;;;;18.72;63.73;100090.63;5414973;32;35830;-67
2023/05/23 04:24:01;;;;;;;;;;;;;;;18.81;63.45;100102.41;5410163;32;35084;-66
2023/05/23 04:27:03;;;;;;;;;;;;;;;18.86;63.02;100095.72;5408589;32;34184;-67
2023/05/23 04:30:08;;;;;;;;;;;;;;;18.72;63.40;100090.63;5417464;32;35007;-70
2023/05/23 04:33:10;;;;;;;;;;;;;;;19.43;60.31;100097.41;5405229;32;34996;-67
2023/05/23 04:36:12;;;;;;;;;;;;;;;19.28;60.74;100095.16;5395796;32;34903;-71
2023/05/23 04:39:15;;;;;;;;;;;;;;;19.40;60.67;100094.16;5399164;32;35564;-70
2023/05/23 04:42:17;;;;;;;;;;;;;;;19.28;61.60;100096.00;5401006;32;44660;-68
2023/05/23 04:45:19;;;;;;;;;;;;;;;19.88;60.07;100088.50;5419504;32;34463;-71
2023/05/23 04:48:21;;;;;;;;;;;;;;;20.21;58.54;100093.69;5381902;32;34763;-69
2023/05/23 04:51:23;;;;;;;;;;;;;;;20.38;57.60;100083.44;5408873;32;35110;-66
2023/05/23 04:54:25;;;;;;;;;;;;;;;20.42;57.25;100091.06;5400325;32;34872;-69
2023/05/23 04:57:28;;;;;;;;;;;;;;;20.51;56.52;100084.09;5396636;32;34368;-70
2023/05/23 05:00:30;;;;;;;;;;;;;;;21.23;54.48;100083.19;5399189;32;35441;-67
2023/05/23 05:03:32;;;;;;;;;;;;;;;22.23;51.70;100077.78;5398488;32;35212;-68
2023/05/23 05:06:33;;;;;;;;;;;;;;;22.19;51.81;100087.06;5388005;32;35209;-71
2023/05/23 05:09:35;;;;;;;;;;;;;;;22.82;49.83;100068.63;5398418;32;36646;-71
2023/05/23 05:12:37;;;;;;;;;;;;;;;22.60;49.70;100076.00;5417253;32;35022;-68
2023/05/23 05:15:39;;;;;;;;;;;;;;;22.07;51.15;100078.28;5409197;32;35674;-67
2023/05/23 05:18:41;;;;;;;;;;;;;;;22.94;48.94;100079.03;5421894;32;35550;-71
2023/05/23 05:21:43;;;;;;;;;;;;;;;23.04;48.03;100081.69;5414083;32;38816;-67
2023/05/23 05:24:45;;;;;;;;;;;;;;;22.18;49.63;100080.87;5393943;32;42160;-67
2023/05/23 05:27:47;;;;;;;;;;;;;;;23.62;45.28;100072.50;5401275;32;34588;-70
2023/05/23 05:30:54;;;;;;;;;;;;;;;24.18;45.10;100079.44;5416616;32;34933;-66
2023/05/23 05:33:56;;;;;;;;;;;;;;;23.26;47.57;100079.62;5421452;32;34769;-67
2023/05/23 05:36:58;;;;;;;;;;;;;;;23.48;46.86;100073.84;5390051;32;35584;-67
2023/05/23 05:40:05;;;;;;;;;;;;;;;25.00;43.21;100067.44;5410088;32;34788;-68
2023/05/23 05:43:07;;;;;;;;;;;;;;;22.94;48.46;100083.56;5397655;32;34249;-75
2023/05/23 05:46:10;;;;;;;;;;;;;;;23.76;46.11;100075.53;5417834;32;34771;-74
2023/05/23 05:49:12;;;;;;;;;;;;;;;25.07;42.30;100068.50;5388662;32;34201;-75
2023/05/23 05:52:14;;;;;;;;;;;;;;;26.09;40.08;100065.59;5388868;32;34303;-67
2023/05/23 05:55:16;;;;;;;;;;;;;;;27.29;37.72;100061.19;5400265;32;44801;-75
2023/05/23 05:58:18;;;;;;;;;;;;;;;27.03;38.25;100065.97;5390184;32;34296;-78
2023/05/23 06:01:20;;;;;;;;;;;;;;;25.69;40.73;100071.72;5388775;32;34325;-73
2023/05/23 06:04:22;;;;;;;;;;;;;;;26.62;38.75;100068.78;5389566;32;34640;-81
2023/05/23 06:07:24;;;;;;;;;;;;;;;26.11;39.91;100060.03;5380512;32;34285;-76
2023/05/23 06:10:26;;;;;;;;;;;;;;;27.32;37.85;100063.53;5408260;32;34107;-72
2023/05/23 06:13:28;;;;;;;;;;;;;;;27.12;37.38;100067.69;5399434;32;34128;-73
2023/05/23 06:16:31;;;;;;;;;;;;;;;25.04;41.65;100068.78;5391458;32;37292;-76
2023/05/23 06:19:33;;;;;;;;;;;;;;;24.30;43.37;100073.66;5378989;32;34395;-78
2023/05/23 06:22:35;;;;;;;;;;;;;;;27.07;37.92;100061.97;5386147;32;32781;-74
2023/05/23 06:25:38;;;;;;;;;;;;;;;26.12;39.29;100062.56;5403407;32;34183;-72
2023/05/23 06:28:42;;;;;;;;;;;;;;;26.91;38.35;100062.81;5395008;32;34336;-77
2023/05/23 06:31:44;;;;;;;;;;;;;;;26.53;39.05;100064.41;5408782;32;34513;-83
2023/05/23 06:34:46;;;;;;;;;;;;;;;26.85;38.65;100067.03;5375002;32;44838;-76
2023/05/23 06:37:48;;;;;;;;;;;;;;;26.62;39.41;100071.50;5383436;32;34231;-69
2023/05/23 06:40:50;;;;;;;;;;;;;;;26.66;39.45;100059.34;5379144;32;34077;-63
2023/05/23 06:43:52;;;;;;;;;;;;;;;26.91;38.79;100069.03;5373984;32;34293;-70
2023/05/23 06:46:56;;;;;;;;;;;;;;;27.53;37.35;100061.06;5388383;32;34757;-69
2023/05/23 06:49:58;;;;;;;;;;;;;;;28.24;35.68;100056.38;5373698;32;35926;-76
2023/05/23 06:53:00;;;;;;;;;;;;;;;26.73;38.37;100063.06;5387922;32;35574;-73
2023/05/23 06:56:02;;;;;;;;;;;;;;;27.45;37.69;100060.28;5382018;32;34170;-71
2023/05/23 06:59:04;;;;;;;;;;;;;;;26.98;38.17;100053.87;5388918;32;34023;-71
2023/05/23 07:02:06;;;;;;;;;;;;;;;27.45;37.56;100053.03;5371047;32;35359;-74
2023/05/23 07:05:08;;;;;;;;;;;;;;;29.31;34.36;100042.59;5388718;32;34830;-71
2023/05/23 07:08:10;;;;;;;;;;;;;;;29.26;34.13;100045.03;5389637;32;35932;-78
2023/05/23 07:11:12;;;;;;;;;;;;;;;31.47;30.03;100038.31;5388076;32;34148;-72
2023/05/23 07:14:15;;;;;;;;;;;;;;;29.57;32.04;100037.50;5398681;32;35292;-72
2023/05/23 07:17:16;;;;;;;;;;;;;;;30.99;30.04;100034.75;5395952;32;44994;-68
2023/05/23 07:20:19;;;;;;;;;;;;;;;31.88;29.25;100026.53;5399993;32;34349;-68
2023/05/23 07:23:22;;;;;;;;;;;;;;;30.59;30.76;100028.19;5403737;32;34183;-69
2023/05/23 07:26:26;;;;;;;;;;;;;;;32.28;28.34;100018.38;5390441;32;34386;-68
2023/05/23 07:29:31;;;;;;;;;;;;;;;31.44;29.04;100024.31;5391537;32;34632;-71
2023/05/23 07:32:33;;;;;;;;;;;;;;;31.47;29.14;100024.72;5377440;32;36506;-72
2023/05/23 07:35:36;;;;;;;;;;;;;;;31.77;29.16;100024.38;5388489;32;36488;-75
2023/05/23 07:38:38;;;;;;;;;;;;;;;31.65;29.30;100026.03;5376376;32;34447;-85
2023/05/23 07:41:40;;;;;;;;;;;;;;;31.35;29.72;100017.38;5406488;32;34594;-65
2023/05/23 07:44:42;;;;;;;;;;;;;;;32.23;28.74;100015.44;5394849;32;34398;-61
2023/05/23 07:47:44;;;;;;;;;;;;;;;32.28;29.36;100019.22;5366129;32;34377;-69
2023/05/23 07:50:47;;;;;;;;;;;;;;;32.40;28.40;100019.44;5391749;32;44504;-69
2023/05/23 07:53:49;;;;;;;;;;;;;;;33.83;26.51;100009.28;5395995;32;35695;-65
2023/05/23 07:56:51;;;;;;;;;;;;;;;32.71;27.29;100007.84;5396641;32;34697;-64
2023/05/23 07:59:55;;;;;;;;;;;;;;;33.97;26.02;100009.22;5391725;32;35788;-74
2023/05/23 08:02:57;;;;;;;;;;;;;;;31.25;29.73;100009.63;5395749;32;35833;-76
2023/05/23 08:06:00;;;;;;;;;;;;;;;31.41;30.11;100002.97;5392618;32;34214;-74
2023/05/23 08:09:02;;;;;;;;;;;;;;;32.40;29.25;100002.31;5395249;32;34264;-77
2023/05/23 08:12:04;;;;;;;;;;;;;;;33.08;27.54;99997.31;5399475;32;35764;-80
2023/05/23 08:15:07;;;;;;;;;;;;;;;35.00;24.06;99998.56;5406837;32;35888;-84
2023/05/23 08:18:10;;;;;;;;;;;;;;;32.34;28.58;100003.97;5400577;32;33940;-63
2023/05/23 08:21:12;;;;;;;;;;;;;;;33.65;26.54;99993.66;5381869;32;34172;-65
2023/05/23 08:24:14;;;;;;;;;;;;;;;32.87;27.28;99996.56;5394278;32;34337;-72
2023/05/23 08:27:16;;;;;;;;;;;;;;;32.69;28.01;100000.97;5388092;32;44412;-69
2023/05/23 08:30:21;;;;;;;;;;;;;;;32.03;28.48;100012.72;5380934;32;35924;-69
2023/05/23 08:33:24;;;;;;;;;;;;;;;34.32;25.87;99993.16;5388589;32;34275;-65
2023/05/23 08:36:26;;;;;;;;;;;;;;;34.69;25.34;99997.62;5364794;32;35672;-80
2023/05/23 08:39:28;;;;;;;;;;;;;;;36.01;23.22;99996.97;5382459;32;34173;-84
2023/05/23 08:42:31;;;;;;;;;;;;;;;34.71;25.07;99994.66;5380432;32;34315;-76
2023/05/23 08:45:33;;;;;;;;;;;;;;;35.01;24.67;99990.12;5385907;32;35573;-83
2023/05/23 08:48:36;;;;;;;;;;;;;;;34.34;25.41;99989.16;5369026;32;36015;-68
2023/05/23 08:51:38;;;;;;;;;;;;;;;37.26;21.54;99984.69;5381626;32;34563;-70
2023/05/23 08:54:41;;;;;;;;;;;;;;;37.43;21.45;99982.06;5392351;32;34318;-75
2023/05/23 08:57:44;;;;;;;;;;;;;;;37.19;21.54;99984.84;5391667;32;34161;-74
2023/05/23 09:00:46;;;;;;;;;;;;;;;35.64;23.62;99983.44;5393219;32;44711;-66
2023/05/23 09:03:49;;;;;;;;;;;;;;;35.63;23.44;99987.22;5390017;32;33950;-65
2023/05/23 09:06:52;;;;;;;;;;;;;;;37.60;20.67;99980.97;5393674;32;34327;-79
2023/05/23 09:09:54;;;;;;;;;;;;;;;37.84;20.71;99981.72;5395745;32;34475;-79
2023/05/23 09:12:57;;;;;;;;;;;;;;;38.10;19.98;99980.22;5403528;32;35341;-72
2023/05/23 09:16:03;;;;;;;;;;;;;;;35.17;23.77;99993.31;5409795;32;35869;-68
2023/05/23 09:19:12;;;;;;;;;;;;;;;37.61;20.22;99984.56;5401428;32;33849;-80
2023/05/23 09:22:14;;;;;;;;;;;;;;;33.14;26.26;99989.09;5393975;32;35465;-70
2023/05/23 09:25:16;;;;;;;;;;;;;;;33.81;25.35;99995.00;5372380;32;45294;-70
2023/05/23 09:28:18;;;;;;;;;;;;;;;34.09;24.51;99991.06;5381422;32;34138;-72
2023/05/23 09:31:20;;;;;;;;;;;;;;;35.46;23.36;99987.03;5406331;32;35658;-71
2023/05/23 09:34:22;;;;;;;;;;;;;;;35.75;22.67;99981.78;5379494;32;32658;-72
2023/05/23 09:37:28;;;;;;;;;;;;;;;37.41;20.92;99969.41;5383332;32;34430;-67
2023/05/23 09:40:30;;;;;;;;;;;;;;;37.44;21.20;99973.56;5395089;32;35084;-70
2023/05/23 09:43:33;;;;;;;;;;;;;;;35.01;24.11;99984.69;5408333;32;32495;-76
2023/05/23 09:46:39;;;;;;;;;;;;;;;37.29;21.46;99968.63;5375940;32;37130;-82
2023/05/23 09:49:44;;;;;;;;;;;;;;;35.87;22.30;99979.88;5366910;32;34453;-67
2023/05/23 09:52:46;;;;;;;;;;;;;;;36.07;21.42;99980.44;5395011;32;45203;-70
2023/05/23 09:55:50;;;;;;;;;;;;;;;37.98;19.07;99954.78;5378058;32;34143;-67
2023/05/23 09:58:52;;;;;;;;;;;;;;;37.69;20.04;99973.19;5398343;32;34187;-71
2023/05/23 10:01:55;;;;;;;;;;;;;;;36.00;21.78;99974.25;5382969;32;34271;-81
2023/05/23 10:04:57;;;;;;;;;;;;;;;36.76;20.66;99963.41;5382387;32;35839;-75
2023/05/23 10:08:00;;;;;;;;;;;;;;;36.10;21.84;99968.19;5381115;32;34068;-74
2023/05/23 10:11:15;;;;;;;;;;;;;;;36.46;21.14;99967.16;5379559;32;34538;-73
2023/05/23 10:14:17;;;;;;;;;;;;;;;38.61;19.49;99952.69;5400132;32;45098;-73
2023/05/23 10:17:20;;;;;;;;;;;;;;;37.77;20.53;99959.06;5378224;32;34176;-74
2023/05/23 10:20:28;;;;;;;;;;;;;;;37.66;20.74;99955.31;5391593;32;35441;-73
2023/05/23 10:23:30;;;;;;;;;;;;;;;38.70;19.53;99940.16;5385778;32;34644;-67
2023/05/23 10:26:32;;;;;;;;;;;;;;;39.13;18.82;99950.34;5397462;32;34254;-67
2023/05/23 10:29:34;;;;;;;;;;;;;;;35.45;22.62;99955.31;5418556;32;34136;-66
2023/05/23 10:32:37;;;;;;;;;;;;;;;37.57;20.37;99943.09;5399418;32;35078;-65
2023/05/23 10:35:47;;;;;;;;;;;;;;;36.51;22.32;99947.25;5375436;32;34172;-73
2023/05/23 10:38:49;;;;;;;;;;;;;;;37.48;21.30;99941.00;5398110;32;44757;-78
2023/05/23 10:41:55;;;;;;;;;;;;;;;37.20;21.49;99945.41;5398430;32;34595;-69
2023/05/23 10:45:13;;;;;;;;;;;;;;;35.04;23.91;99945.19;5378658;32;35401;-77
2023/05/23 10:48:22;;;;;;;;;;;;;;;34.46;24.68;99948.37;5361823;32;35431;-71
2023/05/23 10:51:24;;;;;;;;;;;;;;;33.69;25.41;99950.47;5399013;32;46860;-71
2023/05/23 10:54:26;;;;;;;;;;;;;;;33.78;25.53;99940.13;5370773;32;35393;-71
2023/05/23 10:57:27;;;;;;;;;;;;;;;36.33;22.30;99938.09;5380648;32;34158;-69
2023/05/23 11:00:31;;;;;;;;;;;;;;;36.83;22.04;99931.22;5393037;32;35374;-80
2023/05/23 11:03:37;;;;;;;;;;;;;;;35.18;23.58;99923.97;5393881;32;35077;-70
2023/05/23 11:06:44;;;;;;;;;;;;;;;35.19;23.69;99920.19;5376258;32;34282;-73
2023/05/23 11:10:04;;;;;;;;;;;;;;;35.04;23.77;99917.00;5401124;32;47303;-70
2023/05/23 11:13:06;;;;;;;;;;;;;;;36.01;22.65;99926.69;5397859;32;36672;-71
2023/05/23 11:16:27;;;;;;;;;;;;;;;35.23;23.76;99915.91;5388909;32;35132;-76
2023/05/23 11:19:29;;;;;;;;;;;;;;;33.90;25.82;99911.09;5403257;32;34822;-71
2023/05/23 11:22:35;;;;;;;;;;;;;;;32.71;27.84;99906.34;5405759;32;36075;-72
2023/05/23 11:25:41;;;;;;;;;;;;;;;36.34;22.91;99895.16;5390693;32;35342;-75
2023/05/23 11:28:59;;;;;;;;;;;;;;;35.99;22.80;99897.91;5402794;32;34210;-78
2023/05/23 11:32:07;;;;;;;;;;;;;;;36.21;22.21;99890.78;5402145;32;34166;-82
2023/05/23 11:35:16;;;;;;;;;;;;;;;36.33;22.07;99880.66;5391117;32;43768;-74
2023/05/23 11:38:18;;;;;;;;;;;;;;;34.40;25.01;99884.59;5383492;32;34236;-85
2023/05/23 11:41:20;;;;;;;;;;;;;;;35.82;22.49;99881.38;5393221;32;35852;-72
2023/05/23 11:44:22;;;;;;;;;;;;;;;36.75;21.37;99868.66;5390824;32;34844;-75
2023/05/23 11:47:24;;;;;;;;;;;;;;;37.84;19.88;99863.78;5386925;32;34767;-69
2023/05/23 11:50:26;;;;;;;;;;;;;;;39.96;17.42;99859.25;5400222;32;35174;-72
2023/05/23 11:53:29;;;;;;;;;;;;;;;37.42;19.89;99852.41;5400028;32;34594;-77
2023/05/23 11:56:31;;;;;;;;;;;;;;;35.28;22.76;99866.88;5394519;32;35665;-75
2023/05/23 11:59:33;;;;;;;;;;;;;;;34.64;23.45;99852.00;5408165;32;37010;-74
2023/05/23 12:02:40;;;;;;;;;;;;;;;32.88;26.18;99853.97;5385876;32;35840;-74
2023/05/23 12:05:44;;;;;;;;;;;;;;;34.60;23.74;99839.91;5398499;32;34560;-77
2023/05/23 12:08:46;;;;;;;;;;;;;;;33.82;25.33;99835.91;5380189;32;44599;-73
2023/05/23 12:11:48;;;;;;;;;;;;;;;35.89;23.38;99838.34;5381215;32;34182;-73
2023/05/23 12:14:54;;;;;;;;;;;;;;;33.82;26.29;99832.34;5382718;32;34201;-73
2023/05/23 12:17:56;;;;;;;;;;;;;;;32.03;28.84;99836.91;5381987;32;34194;-71
2023/05/23 12:21:00;;;;;;;;;;;;;;;33.06;26.64;99836.09;5399545;32;36956;-74
2023/05/23 12:24:09;;;;;;;;;;;;;;;31.97;27.53;99826.06;5395127;32;34283;-70
2023/05/23 12:27:16;;;;;;;;;;;;;;;31.70;28.22;99823.34;5384357;32;35399;-77
2023/05/23 12:30:18;;;;;;;;;;;;;;;31.83;26.59;99824.41;5363800;32;44657;-85
2023/05/23 12:33:20;;;;;;;;;;;;;;;31.42;26.45;99817.28;5391391;32;35614;-76
2023/05/23 12:36:26;;;;;;;;;;;;;;;31.15;27.57;99808.28;5382231;32;38137;-74
2023/05/23 12:39:32;;;;;;;;;;;;;;;31.19;28.42;99814.97;5388400;32;35542;-77
2023/05/23 12:42:43;;;;;;;;;;;;;;;30.26;30.44;99808.41;5383676;32;34375;-84
2023/05/23 12:45:45;;;;;;;;;;;;;;;30.69;29.62;99814.47;5393530;32;35836;-75
2023/05/23 12:48:52;;;;;;;;;;;;;;;31.58;28.41;99795.16;5376994;32;44754;-71
2023/05/23 12:51:55;;;;;;;;;;;;;;;31.45;28.27;99800.59;5383513;32;34273;-68
2023/05/23 12:54:57;;;;;;;;;;;;;;;30.84;28.47;99792.56;5394065;32;34329;-71
2023/05/23 12:57:59;;;;;;;;;;;;;;;31.61;27.35;99786.56;5395156;32;34186;-76
2023/05/23 13:01:02;;;;;;;;;;;;;;;31.73;26.92;99778.63;5397075;32;35743;-80
2023/05/23 13:04:04;;;;;;;;;;;;;;;31.64;27.13;99782.63;5394646;32;37758;-70
2023/05/23 13:07:06;;;;;;;;;;;;;;;31.84;27.02;99769.84;5399976;32;35621;-68
2023/05/23 13:10:09;;;;;;;;;;;;;;;31.54;27.26;99772.16;5399461;32;34212;-78
2023/05/23 13:13:11;;;;;;;;;;;;;;;31.38;27.79;99762.59;5397588;32;34486;-76
2023/05/23 13:16:14;;;;;;;;;;;;;;;31.85;26.92;99760.66;5397445;32;35895;-73
2023/05/23 13:19:19;;;;;;;;;;;;;;;31.14;27.78;99769.44;5391965;32;44467;-69
2023/05/23 13:22:21;;;;;;;;;;;;;;;31.32;27.60;99766.13;5381983;32;35939;-72
2023/05/23 13:25:23;;;;;;;;;;;;;;;31.13;27.69;99765.06;5387452;32;34112;-73
2023/05/23 13:28:25;;;;;;;;;;;;;;;30.98;28.73;99770.69;5392998;32;34316;-79
2023/05/23 13:31:27;;;;;;;;;;;;;;;29.77;30.00;99763.34;5388620;32;34419;-75
2023/05/23 13:34:30;;;;;;;;;;;;;;;30.22;29.22;99771.94;5382555;32;34218;-69
2023/05/23 13:37:32;;;;;;;;;;;;;;;30.94;27.82;99768.59;5371113;32;34380;-68
2023/05/23 13:40:34;;;;;;;;;;;;;;;30.33;29.08;99758.59;5394114;32;34260;-77
2023/05/23 13:43:36;;;;;;;;;;;;;;;30.94;28.50;99763.19;5395573;32;34295;-67
2023/05/23 13:46:38;;;;;;;;;;;;;;;31.83;27.33;99760.03;5403706;32;38267;-71
2023/05/23 13:49:41;;;;;;;;;;;;;;;31.63;27.36;99757.34;5370372;32;34473;-77
2023/05/23 13:52:43;;;;;;;;;;;;;;;31.70;27.27;99752.72;5389203;32;34395;-77
2023/05/23 13:55:49;;;;;;;;;;;;;;;31.59;27.08;99755.25;5397124;32;44632;-71
2023/05/23 13:58:51;;;;;;;;;;;;;;;31.26;26.65;99756.94;5395429;32;34930;-67
2023/05/23 14:01:53;;;;;;;;;;;;;;;30.68;27.63;99759.38;5389461;32;33334;-72
2023/05/23 14:04:56;;;;;;;;;;;;;;;31.68;26.34;99738.50;5374047;32;34175;-72
2023/05/23 14:07:58;;;;;;;;;;;;;;;31.91;26.34;99734.50;5383206;32;35814;-73
2023/05/23 14:11:00;;;;;;;;;;;;;;;30.57;27.56;99740.97;5376095;32;34208;-72
2023/05/23 14:14:02;;;;;;;;;;;;;;;31.19;26.53;99736.25;5391355;32;35024;-69
2023/05/23 14:17:04;;;;;;;;;;;;;;;31.19;26.48;99742.53;5378355;32;34717;-67
2023/05/23 14:20:06;;;;;;;;;;;;;;;31.16;26.68;99739.38;5379527;32;35848;-68
2023/05/23 14:23:08;;;;;;;;;;;;;;;30.57;27.35;99740.13;5394650;32;34642;-69
2023/05/23 14:26:10;;;;;;;;;;;;;;;30.70;27.70;99740.19;5373796;32;33640;-67
2023/05/23 14:29:12;;;;;;;;;;;;;;;30.65;27.72;99721.78;5382286;32;35659;-71
2023/05/23 14:32:14;;;;;;;;;;;;;;;30.78;26.97;99728.28;5392818;32;34463;-69
2023/05/23 14:35:17;;;;;;;;;;;;;;;30.67;26.23;99730.59;5386750;32;47323;-73
2023/05/23 14:38:19;;;;;;;;;;;;;;;30.29;25.13;99727.53;5389973;32;35135;-70
2023/05/23 14:41:21;;;;;;;;;;;;;;;30.84;24.42;99730.19;5388768;32;34995;-73
2023/05/23 14:44:23;;;;;;;;;;;;;;;30.71;25.17;99723.69;5384179;32;35126;-68
2023/05/23 14:47:26;;;;;;;;;;;;;;;31.93;24.22;99729.69;5369877;32;35311;-73
2023/05/23 14:50:28;;;;;;;;;;;;;;;31.49;24.57;99720.38;5382767;32;34697;-73
2023/05/23 14:53:30;;;;;;;;;;;;;;;31.27;25.76;99727.94;5389143;32;35047;-70
2023/05/23 14:56:32;;;;;;;;;;;;;;;30.71;26.02;99728.28;5390159;32;35415;-75
2023/05/23 14:59:34;;;;;;;;;;;;;;;30.81;25.83;99736.03;5399887;32;36116;-69
2023/05/23 15:02:36;;;;;;;;;;;;;;;31.19;25.57;99733.53;5380113;32;34709;-69
2023/05/23 15:05:38;;;;;;;;;;;;;;;31.44;25.10;99742.75;5388414;32;35658;-74
2023/05/23 15:08:41;;;;;;;;;;;;;;;31.24;25.55;99740.06;5378686;32;35301;-69
2023/05/23 15:11:44;;;;;;;;;;;;;;;31.27;25.83;99734.19;5394854;32;35437;-73
2023/05/23 15:14:46;;;;;;;;;;;;;;;31.38;26.21;99740.03;5391672;32;44331;-73
2023/05/23 15:17:49;;;;;;;;;;;;;;;31.48;26.15;99735.81;5405321;32;34713;-73
2023/05/23 15:20:51;;;;;;;;;;;;;;;30.60;27.76;99731.59;5392392;32;34248;-71
2023/05/23 15:23:53;;;;;;;;;;;;;;;31.08;27.13;99732.28;5400475;32;34394;-72
2023/05/23 15:26:55;;;;;;;;;;;;;;;30.23;28.34;99732.94;5408872;32;34111;-69
2023/05/23 15:30:17;;;;;;;;;;;;;;;31.17;27.01;99725.63;5388118;32;46973;-73
2023/05/23 15:33:20;;;;;;;;;;;;;;;30.18;28.10;99737.09;5393604;32;35187;-72
2023/05/23 15:36:22;;;;;;;;;;;;;;;30.70;27.29;99751.03;5379008;32;34981;-68
2023/05/23 15:39:27;;;;;;;;;;;;;;;30.57;27.23;99746.38;5380234;32;35086;-68
2023/05/23 15:42:30;;;;;;;;;;;;;;;31.05;26.17;99737.31;5392216;32;34940;-69
2023/05/23 15:45:32;;;;;;;;;;;;;;;31.55;25.19;99739.34;5392364;32;34975;-73
2023/05/23 15:48:34;;;;;;;;;;;;;;;31.31;25.43;99737.34;5384345;32;35023;-73
2023/05/23 15:51:36;;;;;;;;;;;;;;;30.92;25.97;99738.12;5392019;32;34603;-68